createdAt,value
2023-05-02T00:01:22.453Z,25.55
2023-05-02T00:03:49.957Z,26.30
2023-05-02T00:06:17.353Z,27.17
2023-05-02T00:08:44.835Z,26.45
2023-05-02T00:11:12.034Z,26.65
2023-05-02T00:13:39.251Z,28.08
2023-05-02T00:16:06.888Z,26.50
2023-05-02T00:18:34.031Z,27.15
2023-05-02T00:21:01.226Z,27.85
2023-05-02T00:23:28.500Z,25.52
2023-05-02T00:25:55.909Z,26.35
2023-05-02T00:28:23.314Z,25.67
2023-05-02T00:30:50.516Z,26.90
2023-05-02T00:33:17.984Z,27.00
2023-05-02T00:35:45.218Z,27.85
2023-05-02T00:38:12.640Z,28.77
2023-05-02T00:40:48.140Z,29.88
2023-05-02T00:43:16.337Z,29.77
2023-05-02T00:45:44.858Z,30.13
2023-05-02T00:48:13.454Z,29.50
2023-05-02T00:50:43.482Z,30.55
2023-05-02T00:53:11.381Z,28.05
2023-05-02T00:55:39.290Z,29.10
2023-05-02T00:58:12.148Z,30.95
2023-05-02T01:01:01.517Z,29.30
2023-05-02T01:03:55.139Z,27.17
2023-05-02T01:06:43.557Z,26.30
2023-05-02T01:09:23.261Z,27.23
2023-05-02T01:12:16.303Z,26.30
2023-05-02T01:14:48.548Z,26.00
2023-05-02T01:17:17.385Z,28.23
2023-05-02T01:19:51.206Z,25.92
2023-05-02T01:22:20.841Z,24.52
2023-05-02T01:25:16.215Z,26.00
2023-05-02T01:28:10.337Z,24.07
2023-05-02T01:30:41.385Z,22.73
2023-05-02T01:33:11.282Z,24.05
2023-05-02T01:35:38.986Z,24.33
2023-05-02T01:38:07.441Z,22.65
2023-05-02T01:40:37.072Z,21.77
2023-05-02T01:43:06.783Z,19.50
2023-05-02T01:45:36.460Z,16.75
2023-05-02T01:48:05.167Z,15.27
2023-05-02T01:50:32.252Z,14.88
2023-05-02T01:52:59.712Z,13.80
2023-05-02T01:55:27.853Z,12.27
2023-05-02T01:57:56.882Z,12.85
2023-05-02T02:00:25.961Z,11.77
2023-05-02T02:02:55.422Z,10.65
2023-05-02T02:05:23.128Z,10.25
2023-05-02T02:07:50.900Z,10.63
2023-05-02T02:10:18.464Z,8.85
2023-05-02T02:12:53.282Z,8.43
2023-05-02T02:15:27.850Z,7.67
2023-05-02T02:18:02.213Z,6.30
2023-05-02T02:20:32.160Z,6.05
2023-05-02T02:23:02.094Z,6.00
2023-05-02T02:25:29.673Z,6.00
2023-05-02T02:27:57.192Z,6.10
2023-05-02T02:30:24.181Z,5.88
2023-05-02T02:32:51.370Z,6.65
2023-05-02T02:35:18.671Z,8.00
2023-05-02T02:38:19.663Z,8.18
2023-05-02T02:40:55.345Z,8.30
2023-05-02T02:43:28.218Z,8.70
2023-05-02T02:46:22.264Z,9.07
2023-05-02T02:49:05.028Z,9.30
2023-05-02T02:52:07.013Z,8.68
2023-05-02T02:54:59.475Z,8.75
2023-05-02T02:58:05.087Z,7.68
2023-05-02T03:00:33.241Z,6.82
2023-05-02T03:03:00.923Z,7.43
2023-05-02T03:05:29.233Z,6.55
2023-05-02T03:07:59.327Z,7.03
2023-05-02T03:10:26.498Z,5.95
2023-05-02T03:12:56.225Z,5.82
2023-05-02T03:15:52.136Z,4.72
2023-05-02T03:18:23.521Z,4.75
2023-05-02T03:20:51.532Z,4.93
2023-05-02T03:23:18.934Z,4.95
2023-05-02T03:25:45.975Z,5.10
2023-05-02T03:28:19.265Z,4.78
2023-05-02T03:30:48.578Z,4.10
2023-05-02T03:33:15.654Z,3.60
2023-05-02T03:35:46.895Z,3.67
2023-05-02T03:38:14.609Z,4.57
2023-05-02T03:40:43.888Z,5.22
2023-05-02T03:43:11.884Z,4.82
2023-05-02T03:45:39.386Z,5.40
2023-05-02T03:48:06.988Z,4.40
2023-05-02T03:50:34.733Z,4.85
2023-05-02T03:53:01.905Z,4.20
2023-05-02T03:55:42.431Z,4.25
2023-05-02T03:58:14.092Z,4.15
2023-05-02T04:00:41.255Z,5.05
2023-05-02T04:03:09.044Z,5.32
2023-05-02T04:05:40.584Z,4.70
2023-05-02T04:08:10.038Z,4.93
2023-05-02T04:10:37.306Z,4.72
2023-05-02T04:13:07.700Z,4.20
2023-05-02T04:15:37.385Z,4.88
2023-05-02T04:18:05.029Z,6.07
2023-05-02T04:20:33.091Z,5.57
2023-05-02T04:23:00.483Z,5.05
2023-05-02T04:25:28.207Z,4.80
2023-05-02T04:27:57.208Z,5.40
2023-05-02T04:30:25.627Z,4.95
2023-05-02T04:33:01.531Z,5.38
2023-05-02T04:35:33.147Z,4.90
2023-05-02T04:38:00.417Z,5.80
2023-05-02T04:40:28.245Z,4.70
2023-05-02T04:43:01.384Z,4.93
2023-05-02T04:45:36.880Z,4.85
2023-05-02T04:48:08.338Z,4.65
2023-05-02T04:50:35.550Z,3.88
2023-05-02T04:53:02.583Z,3.03
2023-05-02T04:55:30.231Z,3.03
2023-05-02T04:57:57.381Z,3.70
2023-05-02T05:00:25.436Z,4.68
2023-05-02T05:02:53.182Z,3.90
2023-05-02T05:05:20.437Z,5.28
2023-05-02T05:07:47.419Z,4.47
2023-05-02T05:10:16.363Z,4.38
2023-05-02T05:12:47.416Z,4.28
2023-05-02T05:15:16.052Z,3.92
2023-05-02T05:17:47.699Z,3.40
2023-05-02T05:20:14.977Z,4.00
2023-05-02T05:22:43.090Z,3.63
2023-05-02T05:25:12.368Z,3.63
2023-05-02T05:27:39.852Z,3.35
2023-05-02T05:30:09.151Z,3.50
2023-05-02T05:32:36.780Z,2.95
2023-05-02T05:35:04.734Z,3.08
2023-05-02T05:37:31.702Z,3.13
2023-05-02T05:40:01.373Z,3.05
2023-05-02T05:42:28.950Z,3.33
2023-05-02T05:45:00.017Z,3.92
2023-05-02T05:47:27.818Z,2.63
2023-05-02T05:49:56.230Z,2.90
2023-05-02T05:52:27.898Z,3.05
2023-05-02T05:54:56.831Z,2.38
2023-05-02T05:57:25.519Z,2.45
2023-05-02T05:59:53.721Z,2.88
2023-05-02T06:02:21.292Z,2.42
2023-05-02T06:04:48.368Z,2.78
2023-05-02T06:07:17.772Z,2.83
2023-05-02T06:09:45.548Z,2.45
2023-05-02T06:12:13.666Z,3.15
2023-05-02T06:14:40.984Z,2.58
2023-05-02T06:17:08.964Z,2.35
2023-05-02T06:19:35.921Z,1.92
2023-05-02T06:22:02.854Z,2.55
2023-05-02T06:24:29.869Z,2.45
2023-05-02T06:26:56.740Z,2.95
2023-05-02T06:29:23.696Z,2.55
2023-05-02T06:31:51.420Z,2.47
2023-05-02T06:34:18.494Z,2.83
2023-05-02T06:36:45.508Z,2.65
2023-05-02T06:39:12.645Z,2.95
2023-05-02T06:41:39.764Z,3.10
2023-05-02T06:44:06.867Z,3.28
2023-05-02T06:46:33.852Z,2.90
2023-05-02T06:49:00.871Z,2.80
2023-05-02T06:51:28.045Z,2.95
2023-05-02T06:53:55.038Z,3.35
2023-05-02T06:56:22.099Z,2.72
2023-05-02T06:58:49.706Z,2.38
2023-05-02T07:01:16.708Z,2.60
2023-05-02T07:03:43.811Z,2.63
2023-05-02T07:06:10.783Z,3.03
2023-05-02T07:08:37.917Z,2.90
2023-05-02T07:11:04.865Z,3.10
2023-05-02T07:13:31.838Z,3.75
2023-05-02T07:15:58.829Z,3.00
2023-05-02T07:18:25.784Z,2.70
2023-05-02T07:20:52.782Z,3.55
2023-05-02T07:23:20.755Z,3.47
2023-05-02T07:25:50.833Z,2.78
2023-05-02T07:28:18.251Z,3.10
2023-05-02T07:30:45.145Z,3.17
2023-05-02T07:33:12.202Z,2.40
2023-05-02T07:35:39.127Z,2.88
2023-05-02T07:38:06.077Z,2.20
2023-05-02T07:40:33.009Z,2.78
2023-05-02T07:43:02.198Z,2.75
2023-05-02T07:45:29.213Z,3.22
2023-05-02T07:47:56.225Z,2.35
2023-05-02T07:50:24.038Z,2.65
2023-05-02T07:52:51.338Z,2.72
2023-05-02T07:55:18.252Z,2.60
2023-05-02T07:57:45.601Z,2.60
2023-05-02T08:00:12.994Z,2.63
2023-05-02T08:02:43.006Z,2.47
2023-05-02T08:05:10.231Z,3.00
2023-05-02T08:07:37.437Z,2.70
2023-05-02T08:10:06.169Z,2.83
2023-05-02T08:12:33.111Z,2.83
2023-05-02T08:15:04.244Z,2.22
2023-05-02T08:17:31.897Z,2.20
2023-05-02T08:19:58.967Z,1.95
2023-05-02T08:22:26.283Z,2.17
2023-05-02T08:24:53.172Z,2.13
2023-05-02T08:27:20.172Z,2.28
2023-05-02T08:29:47.153Z,2.10
2023-05-02T08:32:14.203Z,2.28
2023-05-02T08:34:41.185Z,2.28
2023-05-02T08:37:12.225Z,2.75
2023-05-02T08:39:39.154Z,1.92
2023-05-02T08:42:07.833Z,2.10
2023-05-02T08:44:34.800Z,2.10
2023-05-02T08:47:03.136Z,2.88
2023-05-02T08:49:32.311Z,2.90
2023-05-02T08:52:02.773Z,2.70
2023-05-02T08:54:30.079Z,2.92
2023-05-02T08:56:59.531Z,2.30
2023-05-02T08:59:26.946Z,2.65
2023-05-02T09:02:00.128Z,3.20
2023-05-02T09:04:33.215Z,2.72
2023-05-02T09:07:00.222Z,2.88
2023-05-02T09:09:27.217Z,3.75
2023-05-02T09:11:54.166Z,3.05
2023-05-02T09:14:21.079Z,3.35
2023-05-02T09:16:48.191Z,2.40
2023-05-02T09:19:26.113Z,2.42
2023-05-02T09:21:53.240Z,2.75
2023-05-02T09:24:22.054Z,2.63
2023-05-02T09:27:03.411Z,2.70
2023-05-02T09:29:36.051Z,3.25
2023-05-02T09:32:04.677Z,2.75
2023-05-02T09:34:31.793Z,1.77
2023-05-02T09:36:58.837Z,2.15
2023-05-02T09:39:29.479Z,2.83
2023-05-02T09:41:57.400Z,2.30
2023-05-02T09:44:25.967Z,3.25
2023-05-02T09:46:54.896Z,2.40
2023-05-02T09:49:42.038Z,2.15
2023-05-02T09:52:15.965Z,2.50
2023-05-02T09:54:43.439Z,2.60
2023-05-02T09:57:11.262Z,2.30
2023-05-02T09:59:39.702Z,2.50
2023-05-02T10:02:09.714Z,2.00
2023-05-02T10:04:37.741Z,3.13
2023-05-02T10:07:06.668Z,2.30
2023-05-02T10:09:36.281Z,2.40
2023-05-02T10:12:08.468Z,2.58
2023-05-02T10:14:51.602Z,2.50
2023-05-02T10:17:27.997Z,2.80
2023-05-02T10:20:03.921Z,2.70
2023-05-02T10:22:31.687Z,2.03
2023-05-02T10:25:00.952Z,3.00
2023-05-02T10:27:31.194Z,3.05
2023-05-02T10:30:00.351Z,2.20
2023-05-02T10:32:32.828Z,2.47
2023-05-02T10:35:05.544Z,2.65
2023-05-02T10:37:36.213Z,2.40
2023-05-02T10:40:04.028Z,3.25
2023-05-02T10:42:31.558Z,2.90
2023-05-02T10:45:00.028Z,2.63
2023-05-02T10:47:27.558Z,2.58
2023-05-02T10:49:58.174Z,2.67
2023-05-02T10:52:41.176Z,3.05
2023-05-02T10:55:22.653Z,2.35
2023-05-02T10:57:59.247Z,2.45
2023-05-02T11:00:34.260Z,2.47
2023-05-02T11:03:02.421Z,2.67
2023-05-02T11:05:29.822Z,2.22
2023-05-02T11:08:30.906Z,3.05
2023-05-02T11:10:57.907Z,2.72
2023-05-02T11:13:50.940Z,3.60
2023-05-02T11:16:17.990Z,2.50
2023-05-02T11:19:01.347Z,2.65
2023-05-02T11:21:31.118Z,2.70
2023-05-02T11:24:35.376Z,2.15
2023-05-02T11:27:39.974Z,2.50
2023-05-02T11:30:09.142Z,2.88
2023-05-02T11:32:45.515Z,2.65
2023-05-02T11:35:17.784Z,3.17
2023-05-02T11:37:56.798Z,2.80
2023-05-02T11:40:24.959Z,2.60
2023-05-02T11:42:52.033Z,3.15
2023-05-02T11:45:19.144Z,2.17
2023-05-02T11:47:47.484Z,2.38
2023-05-02T11:50:16.564Z,2.08
2023-05-02T11:52:45.227Z,2.85
2023-05-02T11:55:15.288Z,3.03
2023-05-02T11:57:43.436Z,2.20
2023-05-02T12:00:11.504Z,2.38
2023-05-02T12:02:48.014Z,2.22
2023-05-02T12:05:16.478Z,1.90
2023-05-02T12:07:45.450Z,2.00
2023-05-02T12:10:14.135Z,2.00
2023-05-02T12:12:43.398Z,1.95
2023-05-02T12:15:13.057Z,1.90
2023-05-02T12:17:46.582Z,2.20
2023-05-02T12:20:14.178Z,2.30
2023-05-02T12:22:41.459Z,2.38
2023-05-02T12:25:08.909Z,3.33
2023-05-02T12:27:38.709Z,2.85
2023-05-02T12:30:06.547Z,2.60
2023-05-02T12:32:38.981Z,2.38
2023-05-02T12:35:20.884Z,2.50
2023-05-02T12:37:48.008Z,2.33
2023-05-02T12:40:18.099Z,2.17
2023-05-02T12:43:00.250Z,2.65
2023-05-02T12:45:29.387Z,3.08
2023-05-02T12:47:56.420Z,2.05
2023-05-02T12:50:39.012Z,1.92
2023-05-02T12:53:07.666Z,2.17
2023-05-02T12:55:35.020Z,2.05
2023-05-02T12:58:15.105Z,2.10
2023-05-02T13:00:44.761Z,2.30
2023-05-02T13:03:13.422Z,2.95
2023-05-02T13:05:40.917Z,3.38
2023-05-02T13:08:08.271Z,3.22
2023-05-02T13:10:35.467Z,3.90
2023-05-02T13:13:02.972Z,2.80
2023-05-02T13:15:30.182Z,2.40
2023-05-02T13:17:57.613Z,2.20
2023-05-02T13:20:24.871Z,2.53
2023-05-02T13:22:51.916Z,2.40
2023-05-02T13:25:18.888Z,1.92
2023-05-02T13:27:46.234Z,1.83
2023-05-02T13:30:13.594Z,2.40
2023-05-02T13:32:41.074Z,2.67
2023-05-02T13:35:09.208Z,3.13
2023-05-02T13:37:36.336Z,2.60
2023-05-02T13:40:05.287Z,2.40
2023-05-02T13:42:32.679Z,2.97
2023-05-02T13:44:59.924Z,2.67
2023-05-02T13:47:27.197Z,2.58
2023-05-02T13:49:54.290Z,2.90
2023-05-02T13:52:21.321Z,2.30
2023-05-02T13:54:48.539Z,2.85
2023-05-02T13:57:15.894Z,2.40
2023-05-02T13:59:42.983Z,2.05
2023-05-02T14:02:10.260Z,2.15
2023-05-02T14:04:37.386Z,2.60
2023-05-02T14:07:05.106Z,2.25
2023-05-02T14:09:32.185Z,3.03
2023-05-02T14:11:59.341Z,2.10
2023-05-02T14:14:26.327Z,2.60
2023-05-02T14:16:53.476Z,2.58
2023-05-02T14:19:20.665Z,2.53
2023-05-02T14:21:47.723Z,2.30
2023-05-02T14:24:16.514Z,2.13
2023-05-02T14:26:43.616Z,1.90
2023-05-02T14:29:10.882Z,2.30
2023-05-02T14:31:38.101Z,2.22
2023-05-02T14:34:07.460Z,2.90
2023-05-02T14:36:36.044Z,1.92
2023-05-02T14:39:03.282Z,2.20
2023-05-02T14:41:30.570Z,2.28
2023-05-02T14:43:57.591Z,2.28
2023-05-02T14:46:24.882Z,2.50
2023-05-02T14:48:52.015Z,2.88
2023-05-02T14:51:19.167Z,2.50
2023-05-02T14:53:48.463Z,2.90
2023-05-02T14:56:17.366Z,2.20
2023-05-02T14:58:44.557Z,2.28
2023-05-02T15:01:22.855Z,2.15
2023-05-02T15:04:05.197Z,2.30
2023-05-02T15:06:33.053Z,3.58
2023-05-02T15:09:00.137Z,2.28
2023-05-02T15:11:27.412Z,1.95
2023-05-02T15:13:56.771Z,3.10
2023-05-02T15:16:27.357Z,2.65
2023-05-02T15:18:55.394Z,2.97
2023-05-02T15:21:22.772Z,2.60
2023-05-02T15:23:49.677Z,2.42
2023-05-02T15:26:16.833Z,2.35
2023-05-02T15:28:43.958Z,2.50
2023-05-02T15:31:11.316Z,2.50
2023-05-02T15:33:38.902Z,2.60
2023-05-02T15:36:06.546Z,2.78
2023-05-02T15:38:39.600Z,2.72
2023-05-02T15:41:08.102Z,2.45
2023-05-02T15:43:35.618Z,2.50
2023-05-02T15:46:02.828Z,2.60
2023-05-02T15:48:33.068Z,2.40
2023-05-02T15:51:00.616Z,2.28
2023-05-02T15:53:28.407Z,2.55
2023-05-02T15:55:55.615Z,2.90
2023-05-02T15:58:23.052Z,3.10
2023-05-02T16:00:51.986Z,2.17
2023-05-02T16:03:19.299Z,2.92
2023-05-02T16:05:46.764Z,2.40
2023-05-02T16:08:13.927Z,2.58
2023-05-02T16:10:43.470Z,2.63
2023-05-02T16:13:10.748Z,2.88
2023-05-02T16:15:39.534Z,4.70
2023-05-02T16:18:06.731Z,2.65
2023-05-02T16:20:37.040Z,2.30
2023-05-02T16:23:04.615Z,2.80
2023-05-02T16:25:32.686Z,2.85
2023-05-02T16:28:00.157Z,2.30
2023-05-02T16:30:28.226Z,2.35
2023-05-02T16:32:55.560Z,2.42
2023-05-02T16:35:22.587Z,2.90
2023-05-02T16:37:49.895Z,2.47
2023-05-02T16:40:17.127Z,2.55
2023-05-02T16:42:44.248Z,2.22
2023-05-02T16:45:11.703Z,2.28
2023-05-02T16:47:38.805Z,2.70
2023-05-02T16:50:06.768Z,3.03
2023-05-02T16:52:36.859Z,2.70
2023-05-02T16:55:05.072Z,2.45
2023-05-02T16:57:32.677Z,2.33
2023-05-02T17:00:01.009Z,2.58
2023-05-02T17:02:28.757Z,2.08
2023-05-02T17:04:59.078Z,2.30
2023-05-02T17:07:26.300Z,2.58
2023-05-02T17:09:53.703Z,2.28
2023-05-02T17:12:22.991Z,2.30
2023-05-02T17:14:50.288Z,2.25
2023-05-02T17:17:19.133Z,2.90
2023-05-02T17:19:46.294Z,2.53
2023-05-02T17:22:13.336Z,2.42
2023-05-02T17:24:40.743Z,2.58
2023-05-02T17:27:07.977Z,3.10
2023-05-02T17:29:35.482Z,15.25
2023-05-02T17:32:02.511Z,18.23
2023-05-02T17:34:30.437Z,3.30
2023-05-02T17:36:57.771Z,2.63
2023-05-02T17:39:25.017Z,2.58
2023-05-02T17:41:52.171Z,3.58
2023-05-02T17:44:21.203Z,2.67
2023-05-02T17:46:48.229Z,2.90
2023-05-02T17:49:15.529Z,2.00
2023-05-02T17:51:42.614Z,2.80
2023-05-02T17:54:09.751Z,2.80
2023-05-02T17:56:37.555Z,2.60
2023-05-02T17:59:05.245Z,3.00
2023-05-02T18:01:32.418Z,2.83
2023-05-02T18:03:59.826Z,2.90
2023-05-02T18:06:28.361Z,3.42
2023-05-02T18:08:55.727Z,2.15
2023-05-02T18:11:24.319Z,2.30
2023-05-02T18:13:51.614Z,3.05
2023-05-02T18:16:19.199Z,3.08
2023-05-02T18:18:46.424Z,3.03
2023-05-02T18:21:21.587Z,3.05
2023-05-02T18:23:49.013Z,2.83
2023-05-02T18:26:16.191Z,3.53
2023-05-02T18:28:45.167Z,2.95
2023-05-02T18:31:18.391Z,3.40
2023-05-02T18:33:46.871Z,2.83
2023-05-02T18:36:19.224Z,2.92
2023-05-02T18:38:46.933Z,3.03
2023-05-02T18:41:13.857Z,3.08
2023-05-02T18:43:40.884Z,2.95
2023-05-02T18:46:09.326Z,3.58
2023-05-02T18:48:36.980Z,3.50
2023-05-02T18:51:04.804Z,3.60
2023-05-02T18:53:32.095Z,3.83
2023-05-02T18:55:59.675Z,3.60
2023-05-02T18:58:26.952Z,3.22
2023-05-02T19:00:54.038Z,3.58
2023-05-02T19:03:21.334Z,3.72
2023-05-02T19:05:50.224Z,3.63
2023-05-02T19:08:17.752Z,3.92
2023-05-02T19:10:44.706Z,4.28
2023-05-02T19:13:11.828Z,3.28
2023-05-02T19:15:39.031Z,3.83
2023-05-02T19:18:06.352Z,3.53
2023-05-02T19:20:33.570Z,3.20
2023-05-02T19:23:18.411Z,2.88
2023-05-02T19:25:47.564Z,2.75
2023-05-02T19:28:16.961Z,3.40
2023-05-02T19:30:45.749Z,3.58
2023-05-02T19:33:13.023Z,3.17
2023-05-02T19:35:40.335Z,3.10
2023-05-02T19:38:07.473Z,3.42
2023-05-02T19:40:34.760Z,3.15
2023-05-02T19:43:01.817Z,2.50
2023-05-02T19:45:29.004Z,3.22
2023-05-02T19:47:56.402Z,2.67
2023-05-02T19:50:25.847Z,3.40
2023-05-02T19:52:52.876Z,3.45
2023-05-02T19:55:20.903Z,2.90
2023-05-02T19:57:49.142Z,2.90
2023-05-02T20:00:16.458Z,3.05
2023-05-02T20:02:45.289Z,2.63
2023-05-02T20:05:12.844Z,2.85
2023-05-02T20:07:39.914Z,3.03
2023-05-02T20:10:07.819Z,2.85
2023-05-02T20:12:34.822Z,3.00
2023-05-02T20:15:02.492Z,3.67
2023-05-02T20:17:29.583Z,3.72
2023-05-02T20:19:57.584Z,3.10
2023-05-02T20:22:24.586Z,3.63
2023-05-02T20:24:51.835Z,2.75
2023-05-02T20:27:19.023Z,3.20
2023-05-02T20:29:46.176Z,2.75
2023-05-02T20:32:13.330Z,2.90
2023-05-02T20:34:40.823Z,3.38
2023-05-02T20:37:07.851Z,3.10
2023-05-02T20:39:35.041Z,3.03
2023-05-02T20:42:02.795Z,3.13
2023-05-02T20:44:33.467Z,2.78
2023-05-02T20:47:01.366Z,2.83
2023-05-02T20:49:32.396Z,3.13
2023-05-02T20:52:04.890Z,3.08
2023-05-02T20:54:31.874Z,2.55
2023-05-02T20:56:58.948Z,2.88
2023-05-02T20:59:26.098Z,2.80
2023-05-02T21:01:53.170Z,3.00
2023-05-02T21:04:20.301Z,3.17
2023-05-02T21:06:47.648Z,3.00
2023-05-02T21:09:16.273Z,3.20
2023-05-02T21:11:43.735Z,3.15
2023-05-02T21:14:11.924Z,2.90
2023-05-02T21:16:39.736Z,2.95
2023-05-02T21:19:06.951Z,3.72
2023-05-02T21:21:33.923Z,3.33
2023-05-02T21:24:01.755Z,3.67
2023-05-02T21:26:28.936Z,3.25
2023-05-02T21:28:56.265Z,3.45
2023-05-02T21:31:23.567Z,3.33
2023-05-02T21:33:50.730Z,3.03
2023-05-02T21:36:17.857Z,3.28
2023-05-02T21:38:45.206Z,2.80
2023-05-02T21:41:12.179Z,2.70
2023-05-02T21:43:40.133Z,2.83
2023-05-02T21:46:07.232Z,2.92
2023-05-02T21:48:34.533Z,3.55
2023-05-02T21:51:05.360Z,2.90
2023-05-02T21:53:32.503Z,2.85
2023-05-02T21:55:59.598Z,3.28
2023-05-02T21:58:26.873Z,3.08
2023-05-02T22:00:54.006Z,3.78
2023-05-02T22:03:21.291Z,3.40
2023-05-02T22:05:49.885Z,3.20
2023-05-02T22:08:17.771Z,3.20
2023-05-02T22:10:45.308Z,4.07
2023-05-02T22:13:14.349Z,3.50
2023-05-02T22:15:47.914Z,3.47
2023-05-02T22:18:16.837Z,3.50
2023-05-02T22:20:45.350Z,3.67
2023-05-02T22:23:12.849Z,3.65
2023-05-02T22:25:41.867Z,3.70
2023-05-02T22:28:11.612Z,3.88
2023-05-02T22:30:43.166Z,4.03
2023-05-02T22:33:10.973Z,4.00
2023-05-02T22:35:38.462Z,3.97
2023-05-02T22:38:08.903Z,4.20
2023-05-02T22:40:36.003Z,4.03
2023-05-02T22:43:02.916Z,4.25
2023-05-02T22:45:30.093Z,4.72
2023-05-02T22:47:57.182Z,4.53
2023-05-02T22:50:26.282Z,4.55
2023-05-02T22:52:57.337Z,4.13
2023-05-02T22:55:24.849Z,4.60
2023-05-02T22:57:52.119Z,4.95
2023-05-02T23:00:19.830Z,4.93
2023-05-02T23:02:46.861Z,4.97
2023-05-02T23:05:14.321Z,5.40
2023-05-02T23:07:41.265Z,5.80
2023-05-02T23:10:09.498Z,5.65
2023-05-02T23:12:36.721Z,5.50
2023-05-02T23:15:04.021Z,6.35
2023-05-02T23:17:31.016Z,6.18
2023-05-02T23:19:58.855Z,6.38
2023-05-02T23:22:25.998Z,6.30
2023-05-02T23:24:53.027Z,6.72
2023-05-02T23:27:19.879Z,6.57
2023-05-02T23:29:49.060Z,7.50
2023-05-02T23:32:17.285Z,6.50
2023-05-02T23:34:44.539Z,6.93
2023-05-02T23:37:12.972Z,7.13
2023-05-02T23:39:40.698Z,6.40
2023-05-02T23:42:07.958Z,7.25
2023-05-02T23:44:35.000Z,7.15
2023-05-02T23:47:02.048Z,7.70
2023-05-02T23:49:29.132Z,7.15
2023-05-02T23:51:56.230Z,7.80
2023-05-02T23:54:23.227Z,7.65
2023-05-02T23:56:50.518Z,7.90
2023-05-02T23:59:17.565Z,7.70
